createdAt,value
2022-11-16T00:02:20.257Z,89.28
2022-11-16T00:04:46.883Z,88.60
2022-11-16T00:07:13.539Z,88.61
2022-11-16T00:09:40.121Z,88.10
2022-11-16T00:12:09.732Z,88.32
2022-11-16T00:14:36.779Z,88.38
2022-11-16T00:17:04.664Z,88.02
2022-11-16T00:19:31.502Z,88.14
2022-11-16T00:21:58.335Z,87.96
2022-11-16T00:24:24.902Z,87.56
2022-11-16T00:26:54.427Z,87.84
2022-11-16T00:29:24.019Z,87.69
2022-11-16T00:31:51.500Z,87.42
2022-11-16T00:34:18.536Z,87.25
2022-11-16T00:36:45.693Z,86.75
2022-11-16T00:39:13.620Z,86.74
2022-11-16T00:41:40.816Z,86.67
2022-11-16T00:44:07.555Z,87.14
2022-11-16T00:46:34.142Z,86.67
2022-11-16T00:49:00.685Z,87.15
2022-11-16T00:51:27.282Z,87.00
2022-11-16T00:53:53.935Z,86.53
2022-11-16T00:56:20.555Z,85.85
2022-11-16T00:58:47.228Z,85.91
2022-11-16T01:01:14.328Z,85.75
2022-11-16T01:03:41.058Z,86.07
2022-11-16T01:06:10.373Z,85.83
2022-11-16T01:08:38.733Z,85.79
2022-11-16T01:11:24.934Z,85.96
2022-11-16T01:13:52.118Z,85.62
2022-11-16T01:16:21.490Z,85.71
2022-11-16T01:18:53.465Z,84.57
2022-11-16T01:21:20.918Z,84.95
2022-11-16T01:23:47.716Z,85.68
2022-11-16T01:26:14.240Z,85.51
2022-11-16T01:28:40.799Z,84.93
2022-11-16T01:31:09.181Z,85.25
2022-11-16T01:33:35.959Z,84.79
2022-11-16T01:36:03.101Z,84.98
2022-11-16T01:38:30.269Z,85.40
2022-11-16T01:40:56.971Z,84.80
2022-11-16T01:43:25.550Z,84.63
2022-11-16T01:45:52.592Z,85.51
2022-11-16T01:48:30.205Z,85.65
2022-11-16T01:50:57.892Z,85.49
2022-11-16T01:53:24.994Z,85.73
2022-11-16T01:55:52.332Z,85.97
2022-11-16T01:58:23.185Z,85.85
2022-11-16T02:00:49.836Z,86.07
2022-11-16T02:03:20.915Z,85.99
2022-11-16T02:06:12.406Z,86.65
2022-11-16T02:09:18.975Z,86.35
2022-11-16T02:12:02.019Z,86.05
2022-11-16T02:14:28.487Z,86.41
2022-11-16T02:17:23.791Z,86.68
2022-11-16T02:20:18.788Z,86.86
2022-11-16T02:23:07.837Z,86.19
2022-11-16T02:25:43.115Z,86.75
2022-11-16T02:28:37.635Z,86.59
2022-11-16T02:31:07.398Z,86.66
2022-11-16T02:33:39.029Z,87.00
2022-11-16T02:36:10.021Z,86.31
2022-11-16T02:38:40.551Z,86.81
2022-11-16T02:41:12.035Z,86.71
2022-11-16T02:43:43.759Z,86.91
2022-11-16T02:46:18.589Z,86.25
2022-11-16T02:48:50.832Z,85.62
2022-11-16T02:51:18.809Z,86.58
2022-11-16T02:54:04.287Z,86.87
2022-11-16T02:56:40.214Z,86.34
2022-11-16T02:59:13.041Z,86.59
2022-11-16T03:01:47.694Z,86.64
2022-11-16T03:04:18.324Z,86.73
2022-11-16T03:06:48.122Z,86.38
2022-11-16T03:09:24.598Z,85.73
2022-11-16T03:12:01.056Z,86.06
2022-11-16T03:14:33.541Z,85.64
2022-11-16T03:17:02.003Z,86.45
2022-11-16T03:19:44.076Z,85.74
2022-11-16T03:22:28.738Z,86.04
2022-11-16T03:24:55.775Z,86.14
2022-11-16T03:27:30.353Z,86.27
2022-11-16T03:30:06.200Z,84.57
2022-11-16T03:32:46.210Z,83.66
2022-11-16T03:35:31.958Z,83.41
2022-11-16T03:38:00.719Z,83.58
2022-11-16T03:40:30.859Z,82.96
2022-11-16T03:43:00.227Z,83.13
2022-11-16T03:45:27.376Z,82.69
2022-11-16T03:47:53.924Z,83.31
2022-11-16T03:50:20.571Z,83.32
2022-11-16T03:52:47.115Z,83.89
2022-11-16T03:55:13.959Z,83.49
2022-11-16T03:57:40.484Z,84.28
2022-11-16T04:00:08.212Z,84.20
2022-11-16T04:02:34.721Z,84.29
2022-11-16T04:05:19.604Z,83.95
2022-11-16T04:08:07.061Z,83.97
2022-11-16T04:10:52.486Z,84.46
2022-11-16T04:13:45.412Z,84.85
2022-11-16T04:16:31.008Z,85.00
2022-11-16T04:19:15.905Z,84.77
2022-11-16T04:22:06.014Z,84.14
2022-11-16T04:24:37.147Z,84.88
2022-11-16T04:27:27.400Z,84.94
2022-11-16T04:29:56.268Z,84.60
2022-11-16T04:32:41.609Z,85.08
2022-11-16T04:35:46.856Z,85.42
2022-11-16T04:38:13.768Z,85.20
2022-11-16T04:40:40.619Z,85.52
2022-11-16T04:43:07.487Z,85.12
2022-11-16T04:45:52.962Z,85.24
2022-11-16T04:48:20.329Z,85.63
2022-11-16T04:50:48.767Z,85.50
2022-11-16T04:53:15.398Z,84.87
2022-11-16T04:55:41.973Z,85.10
2022-11-16T04:58:08.511Z,85.54
2022-11-16T05:00:35.035Z,85.29
2022-11-16T05:03:04.033Z,85.14
2022-11-16T05:05:30.542Z,85.87
2022-11-16T05:07:57.122Z,85.24
2022-11-16T05:10:23.676Z,85.42
2022-11-16T05:12:50.268Z,85.51
2022-11-16T05:15:20.156Z,85.59
2022-11-16T05:17:47.347Z,85.20
2022-11-16T05:20:32.805Z,85.75
2022-11-16T05:22:59.755Z,85.81
2022-11-16T05:25:31.260Z,85.63
2022-11-16T05:28:00.634Z,85.51
2022-11-16T05:30:28.697Z,86.13
2022-11-16T05:32:55.209Z,86.20
2022-11-16T05:35:21.721Z,86.41
2022-11-16T05:37:48.249Z,86.63
2022-11-16T05:40:15.171Z,86.83
2022-11-16T05:42:41.744Z,86.74
2022-11-16T05:45:08.538Z,86.83
2022-11-16T05:47:35.125Z,87.06
2022-11-16T05:50:01.850Z,87.53
2022-11-16T05:52:28.419Z,87.68
2022-11-16T05:54:54.929Z,87.86
2022-11-16T05:57:21.517Z,88.05
2022-11-16T05:59:48.048Z,88.75
2022-11-16T06:02:14.570Z,88.69
2022-11-16T06:04:41.128Z,88.17
2022-11-16T06:07:07.744Z,87.56
2022-11-16T06:09:35.510Z,85.99
2022-11-16T06:12:02.105Z,84.69
2022-11-16T06:14:28.593Z,84.41
2022-11-16T06:16:55.185Z,84.21
2022-11-16T06:19:21.883Z,82.89
2022-11-16T06:21:48.364Z,82.54
2022-11-16T06:24:14.896Z,81.52
2022-11-16T06:26:41.421Z,81.13
2022-11-16T06:29:08.482Z,80.99
2022-11-16T06:31:35.012Z,80.16
2022-11-16T06:34:01.562Z,79.10
2022-11-16T06:36:28.267Z,78.35
2022-11-16T06:38:54.834Z,78.77
2022-11-16T06:41:21.724Z,78.89
2022-11-16T06:43:48.240Z,78.54
2022-11-16T06:46:14.791Z,78.92
2022-11-16T06:48:41.372Z,79.27
2022-11-16T06:51:08.053Z,79.27
2022-11-16T06:53:36.231Z,77.74
2022-11-16T06:56:04.344Z,78.70
2022-11-16T06:58:32.268Z,78.25
2022-11-16T07:01:09.733Z,78.90
2022-11-16T07:03:36.510Z,79.35
2022-11-16T07:06:08.441Z,77.49
2022-11-16T07:08:35.808Z,77.26
2022-11-16T07:11:04.772Z,78.06
2022-11-16T07:13:35.722Z,78.93
2022-11-16T07:16:07.677Z,79.25
2022-11-16T07:18:36.301Z,79.86
2022-11-16T07:21:21.247Z,81.16
2022-11-16T07:23:47.805Z,79.82
2022-11-16T07:26:14.318Z,80.47
2022-11-16T07:28:46.633Z,80.13
2022-11-16T07:31:15.663Z,80.60
2022-11-16T07:33:42.228Z,81.62
2022-11-16T07:36:11.892Z,80.69
2022-11-16T07:38:39.144Z,80.90
2022-11-16T07:41:09.166Z,78.72
2022-11-16T07:43:35.713Z,78.64
2022-11-16T07:46:45.326Z,79.77
2022-11-16T07:49:00.110Z,79.61
2022-11-16T07:51:26.952Z,80.16
2022-11-16T07:53:58.084Z,78.79
2022-11-16T07:56:25.256Z,78.72
2022-11-16T07:58:51.764Z,79.22
2022-11-16T08:01:19.061Z,79.28
2022-11-16T08:03:46.427Z,80.01
2022-11-16T08:06:12.931Z,80.33
2022-11-16T08:08:39.535Z,79.92
2022-11-16T08:11:08.788Z,79.05
2022-11-16T08:13:37.407Z,79.35
2022-11-16T08:16:10.468Z,80.03
2022-11-16T08:18:37.774Z,79.56
2022-11-16T08:21:06.127Z,79.62
2022-11-16T08:23:33.491Z,79.94
2022-11-16T08:26:05.217Z,80.20
2022-11-16T08:28:32.866Z,79.67
2022-11-16T08:31:00.868Z,78.79
2022-11-16T08:33:29.296Z,79.13
2022-11-16T08:35:55.880Z,79.29
2022-11-16T08:38:22.430Z,78.70
2022-11-16T08:40:50.877Z,78.51
2022-11-16T08:43:17.428Z,77.45
2022-11-16T08:45:48.074Z,78.19
2022-11-16T08:48:14.746Z,77.09
2022-11-16T08:51:02.410Z,77.27
2022-11-16T08:53:27.850Z,75.66
2022-11-16T08:55:54.359Z,75.90
2022-11-16T08:58:20.867Z,75.50
2022-11-16T09:00:47.426Z,76.55
2022-11-16T09:03:13.924Z,76.79
2022-11-16T09:05:42.567Z,77.10
2022-11-16T09:08:09.156Z,77.95
2022-11-16T09:10:37.537Z,77.91
2022-11-16T09:13:04.121Z,78.15
2022-11-16T09:15:31.817Z,76.68
2022-11-16T09:17:58.360Z,77.15
2022-11-16T09:20:26.372Z,76.80
2022-11-16T09:22:52.916Z,75.17
2022-11-16T09:25:19.500Z,75.56
2022-11-16T09:27:46.005Z,74.42
2022-11-16T09:30:12.835Z,73.74
2022-11-16T09:32:39.377Z,73.32
2022-11-16T09:35:06.539Z,74.48
2022-11-16T09:37:33.111Z,74.42
2022-11-16T09:39:59.660Z,74.96
2022-11-16T09:42:46.026Z,75.19
2022-11-16T09:45:36.746Z,73.83
2022-11-16T09:48:06.362Z,74.94
2022-11-16T09:50:44.388Z,76.08
2022-11-16T09:53:33.581Z,75.31
2022-11-16T09:56:08.803Z,75.92
2022-11-16T09:59:04.476Z,75.51
2022-11-16T10:01:52.823Z,75.54
2022-11-16T10:04:39.256Z,75.45
2022-11-16T10:07:15.974Z,75.80
2022-11-16T10:09:44.323Z,75.81
2022-11-16T10:12:46.329Z,75.91
2022-11-16T10:15:34.490Z,76.41
2022-11-16T10:18:19.840Z,77.19
2022-11-16T10:21:20.580Z,76.52
2022-11-16T10:23:56.173Z,76.58
2022-11-16T10:26:50.457Z,76.83
2022-11-16T10:29:56.137Z,75.98
2022-11-16T10:32:28.979Z,76.91
2022-11-16T10:34:56.881Z,77.13
2022-11-16T10:37:31.070Z,77.31
2022-11-16T10:39:58.142Z,78.19
2022-11-16T10:42:44.316Z,78.74
2022-11-16T10:45:11.230Z,77.90
2022-11-16T10:47:57.086Z,78.39
2022-11-16T10:50:33.102Z,79.50
2022-11-16T10:53:00.755Z,79.80
2022-11-16T10:55:28.753Z,79.25
2022-11-16T10:58:03.866Z,79.26
2022-11-16T11:00:51.774Z,79.43
2022-11-16T11:03:32.331Z,78.36
2022-11-16T11:05:59.786Z,78.54
2022-11-16T11:08:30.675Z,77.98
2022-11-16T11:11:23.556Z,77.89
2022-11-16T11:14:05.042Z,77.47
2022-11-16T11:16:32.004Z,78.20
2022-11-16T11:19:17.758Z,77.84
2022-11-16T11:21:44.955Z,77.36
2022-11-16T11:24:43.258Z,77.60
2022-11-16T11:27:05.463Z,77.55
2022-11-16T11:29:35.249Z,77.33
2022-11-16T11:32:08.450Z,77.23
2022-11-16T11:34:47.565Z,76.89
2022-11-16T11:37:37.233Z,76.63
2022-11-16T11:40:09.806Z,76.15
2022-11-16T11:42:41.369Z,76.74
2022-11-16T11:45:15.177Z,77.01
2022-11-16T11:47:58.589Z,77.05
2022-11-16T11:50:50.513Z,77.55
2022-11-16T11:53:41.309Z,78.58
2022-11-16T11:56:10.400Z,78.72
2022-11-16T11:58:39.593Z,78.88
2022-11-16T12:01:37.714Z,79.01
2022-11-16T12:04:32.548Z,78.73
2022-11-16T12:07:05.432Z,78.88
2022-11-16T12:09:49.182Z,79.01
2022-11-16T12:12:24.576Z,79.59
2022-11-16T12:15:21.482Z,79.90
2022-11-16T12:18:13.412Z,80.73
2022-11-16T12:20:50.149Z,80.33
2022-11-16T12:23:39.547Z,78.58
2022-11-16T12:26:20.760Z,79.01
2022-11-16T12:29:29.144Z,78.10
2022-11-16T12:32:14.421Z,78.78
2022-11-16T12:35:02.156Z,78.96
2022-11-16T12:37:49.614Z,77.05
2022-11-16T12:40:34.862Z,76.94
2022-11-16T12:43:20.240Z,77.25
2022-11-16T12:46:01.044Z,76.76
2022-11-16T12:48:30.481Z,76.61
2022-11-16T12:51:20.200Z,77.01
2022-11-16T12:53:59.015Z,76.65
2022-11-16T12:56:34.253Z,76.52
2022-11-16T12:59:16.976Z,76.44
2022-11-16T13:02:21.826Z,76.14
2022-11-16T13:04:57.575Z,75.98
2022-11-16T13:07:39.320Z,75.50
2022-11-16T13:10:13.881Z,75.89
2022-11-16T13:12:43.306Z,76.10
2022-11-16T13:15:19.270Z,76.00
2022-11-16T13:18:07.964Z,74.99
2022-11-16T13:20:53.256Z,74.56
2022-11-16T13:23:32.301Z,73.85
2022-11-16T13:26:13.280Z,73.88
2022-11-16T13:28:48.967Z,74.37
2022-11-16T13:31:36.232Z,74.89
2022-11-16T13:34:07.146Z,74.90
2022-11-16T13:36:45.497Z,75.18
2022-11-16T13:39:22.264Z,74.81
2022-11-16T13:41:51.893Z,75.02
2022-11-16T13:44:20.291Z,75.28
2022-11-16T13:46:57.317Z,74.64
2022-11-16T13:49:36.710Z,74.33
2022-11-16T13:52:28.749Z,75.06
2022-11-16T13:54:56.957Z,75.17
2022-11-16T13:57:32.583Z,75.64
2022-11-16T14:00:02.178Z,76.79
2022-11-16T14:02:28.652Z,76.40
2022-11-16T14:05:01.326Z,76.98
2022-11-16T14:07:46.477Z,76.40
2022-11-16T14:10:34.725Z,76.24
2022-11-16T14:13:05.762Z,76.90
2022-11-16T14:15:37.379Z,76.95
2022-11-16T14:18:31.669Z,76.74
2022-11-16T14:21:04.999Z,77.54
2022-11-16T14:23:53.383Z,77.15
2022-11-16T14:26:25.042Z,77.64
2022-11-16T14:29:08.710Z,77.75
2022-11-16T14:32:01.392Z,77.58
2022-11-16T14:34:31.242Z,77.63
2022-11-16T14:36:59.630Z,78.04
2022-11-16T14:39:43.676Z,78.57
2022-11-16T14:42:21.793Z,78.10
2022-11-16T14:44:50.092Z,79.04
2022-11-16T14:47:27.099Z,79.05
2022-11-16T14:49:56.373Z,79.60
2022-11-16T14:52:34.344Z,79.52
2022-11-16T14:55:06.470Z,79.70
2022-11-16T14:57:32.945Z,79.66
2022-11-16T15:00:18.069Z,79.36
2022-11-16T15:02:51.842Z,79.29
2022-11-16T15:05:22.165Z,79.96
2022-11-16T15:07:52.445Z,79.31
2022-11-16T15:10:25.665Z,80.11
2022-11-16T15:12:55.135Z,79.99
2022-11-16T15:15:30.244Z,79.73
2022-11-16T15:17:59.628Z,79.67
2022-11-16T15:20:29.417Z,79.42
2022-11-16T15:22:58.891Z,79.29
2022-11-16T15:25:31.276Z,79.14
2022-11-16T15:28:01.373Z,79.08
2022-11-16T15:30:37.140Z,79.23
2022-11-16T15:33:09.727Z,79.01
2022-11-16T15:35:38.030Z,79.40
2022-11-16T15:38:32.369Z,79.44
2022-11-16T15:41:04.378Z,79.72
2022-11-16T15:43:45.086Z,79.56
2022-11-16T15:46:23.441Z,80.11
2022-11-16T15:48:50.511Z,79.87
2022-11-16T15:51:20.138Z,79.24
2022-11-16T15:53:55.735Z,80.20
2022-11-16T15:56:25.223Z,80.32
2022-11-16T15:58:57.691Z,80.37
2022-11-16T16:01:25.845Z,80.02
2022-11-16T16:04:00.533Z,79.85
2022-11-16T16:06:55.594Z,80.11
2022-11-16T16:09:26.748Z,80.09
2022-11-16T16:11:55.414Z,79.80
2022-11-16T16:14:24.468Z,79.69
2022-11-16T16:16:57.910Z,79.29
2022-11-16T16:19:33.642Z,79.26
2022-11-16T16:22:00.561Z,78.64
2022-11-16T16:24:34.715Z,78.82
2022-11-16T16:27:01.295Z,78.83
2022-11-16T16:29:28.566Z,79.74
2022-11-16T16:31:58.712Z,79.58
2022-11-16T16:34:25.217Z,80.37
2022-11-16T16:36:51.736Z,80.29
2022-11-16T16:39:18.305Z,80.58
2022-11-16T16:41:45.114Z,80.61
2022-11-16T16:44:15.381Z,80.62
2022-11-16T16:46:42.002Z,80.21
2022-11-16T16:49:08.751Z,80.81
2022-11-16T16:51:35.297Z,81.00
2022-11-16T16:54:01.878Z,80.92
2022-11-16T16:56:28.575Z,81.29
2022-11-16T16:58:55.211Z,81.47
2022-11-16T17:01:22.019Z,80.97
2022-11-16T17:03:48.783Z,81.43
2022-11-16T17:06:15.460Z,81.82
2022-11-16T17:08:42.115Z,81.78
2022-11-16T17:11:10.374Z,81.59
2022-11-16T17:13:37.189Z,81.73
2022-11-16T17:16:05.782Z,82.43
2022-11-16T17:18:32.632Z,82.53
2022-11-16T17:21:07.115Z,82.89
2022-11-16T17:23:35.130Z,83.91
2022-11-16T17:26:09.680Z,83.56
2022-11-16T17:28:36.739Z,83.60
2022-11-16T17:31:05.448Z,83.50
2022-11-16T17:33:39.890Z,83.86
2022-11-16T17:36:09.347Z,83.75
2022-11-16T17:38:36.603Z,84.07
2022-11-16T17:41:12.997Z,83.86
2022-11-16T17:43:41.377Z,84.21
2022-11-16T17:46:10.907Z,84.51
2022-11-16T17:48:39.227Z,84.25
2022-11-16T17:51:06.644Z,84.21
2022-11-16T17:53:35.599Z,84.20
2022-11-16T17:56:04.587Z,84.85
2022-11-16T17:58:32.595Z,85.09
2022-11-16T18:01:00.699Z,84.50
2022-11-16T18:03:28.507Z,85.42
2022-11-16T18:06:11.144Z,85.04
2022-11-16T18:08:38.127Z,85.11
2022-11-16T18:11:10.593Z,85.15
2022-11-16T18:13:37.615Z,85.47
2022-11-16T18:16:05.828Z,85.24
2022-11-16T18:18:33.933Z,85.98
2022-11-16T18:21:01.462Z,85.94
2022-11-16T18:23:29.350Z,85.52
2022-11-16T18:25:56.468Z,85.55
2022-11-16T18:28:23.937Z,85.49
2022-11-16T18:30:50.643Z,84.68
2022-11-16T18:33:17.418Z,85.37
2022-11-16T18:35:44.677Z,84.79
2022-11-16T18:38:14.057Z,84.52
2022-11-16T18:40:40.714Z,84.55
2022-11-16T18:43:12.885Z,84.58
2022-11-16T18:45:39.565Z,83.84
2022-11-16T18:48:06.309Z,84.42
2022-11-16T18:50:33.076Z,83.73
2022-11-16T18:52:59.735Z,84.53
2022-11-16T18:55:26.593Z,84.04
2022-11-16T18:57:53.284Z,83.77
2022-11-16T19:00:20.365Z,83.95
2022-11-16T19:02:46.945Z,84.48
2022-11-16T19:05:13.611Z,84.63
2022-11-16T19:07:40.465Z,84.02
2022-11-16T19:10:07.944Z,84.00
2022-11-16T19:12:34.575Z,84.76
2022-11-16T19:15:01.197Z,84.67
2022-11-16T19:17:28.025Z,83.84
2022-11-16T19:19:54.731Z,83.70
2022-11-16T19:22:21.479Z,84.15
2022-11-16T19:24:48.251Z,83.93
2022-11-16T19:27:16.842Z,82.99
2022-11-16T19:29:43.741Z,83.66
2022-11-16T19:32:10.585Z,82.93
2022-11-16T19:34:37.271Z,83.15
2022-11-16T19:37:04.128Z,82.97
2022-11-16T19:39:31.288Z,82.68
2022-11-16T19:41:58.167Z,82.56
2022-11-16T19:44:25.215Z,83.08
2022-11-16T19:46:54.776Z,82.64
2022-11-16T19:49:24.065Z,83.05
2022-11-16T19:51:51.126Z,82.62
2022-11-16T19:54:18.177Z,83.09
2022-11-16T19:56:50.561Z,82.83
2022-11-16T19:59:20.640Z,83.13
2022-11-16T20:01:47.582Z,82.98
2022-11-16T20:04:15.627Z,83.21
2022-11-16T20:06:43.110Z,83.52
2022-11-16T20:09:12.535Z,82.76
2022-11-16T20:11:41.744Z,83.11
2022-11-16T20:14:12.120Z,83.67
2022-11-16T20:16:42.115Z,83.73
2022-11-16T20:19:09.895Z,83.40
2022-11-16T20:21:39.138Z,83.49
2022-11-16T20:24:09.185Z,84.32
2022-11-16T20:26:37.410Z,84.12
2022-11-16T20:29:04.410Z,84.48
2022-11-16T20:31:33.516Z,85.04
2022-11-16T20:34:03.090Z,85.21
2022-11-16T20:36:31.706Z,84.81
2022-11-16T20:39:00.171Z,85.80
2022-11-16T20:41:29.048Z,85.79
2022-11-16T20:44:01.796Z,85.99
2022-11-16T20:46:33.652Z,86.41
2022-11-16T20:49:03.838Z,85.90
2022-11-16T20:51:31.035Z,86.69
2022-11-16T20:53:58.612Z,86.80
2022-11-16T20:56:27.426Z,86.29
2022-11-16T20:58:54.998Z,87.24
2022-11-16T21:01:32.158Z,86.99
2022-11-16T21:04:04.310Z,87.07
2022-11-16T21:06:31.437Z,86.93
2022-11-16T21:08:58.917Z,87.58
2022-11-16T21:11:29.032Z,87.42
2022-11-16T21:14:14.506Z,87.78
2022-11-16T21:16:41.735Z,87.98
2022-11-16T21:19:08.661Z,87.22
2022-11-16T21:21:35.631Z,87.94
2022-11-16T21:24:02.499Z,88.11
2022-11-16T21:26:31.465Z,88.14
2022-11-16T21:28:59.479Z,87.49
2022-11-16T21:31:29.941Z,88.61
2022-11-16T21:33:57.575Z,88.00
2022-11-16T21:36:26.589Z,88.85
2022-11-16T21:38:54.940Z,88.79
2022-11-16T21:41:23.612Z,88.82
2022-11-16T21:43:50.593Z,88.69
2022-11-16T21:46:21.424Z,88.53
2022-11-16T21:48:48.460Z,88.94
2022-11-16T21:51:17.621Z,88.67
2022-11-16T21:53:44.882Z,89.11
2022-11-16T21:56:16.599Z,88.91
2022-11-16T21:58:43.878Z,89.17
2022-11-16T22:01:12.219Z,88.65
2022-11-16T22:03:39.546Z,88.90
2022-11-16T22:06:26.470Z,88.88
2022-11-16T22:08:53.128Z,88.46
2022-11-16T22:11:22.000Z,88.29
2022-11-16T22:13:49.758Z,88.01
2022-11-16T22:16:18.280Z,88.50
2022-11-16T22:18:44.962Z,88.65
2022-11-16T22:21:11.787Z,88.56
2022-11-16T22:23:38.887Z,88.71
2022-11-16T22:26:08.186Z,87.65
2022-11-16T22:28:36.052Z,88.27
2022-11-16T22:31:13.834Z,87.62
2022-11-16T22:33:40.712Z,87.76
2022-11-16T22:36:09.339Z,87.82
2022-11-16T22:38:36.383Z,87.10
2022-11-16T22:41:03.136Z,87.06
2022-11-16T22:43:31.175Z,86.24
2022-11-16T22:46:02.695Z,86.86
2022-11-16T22:48:37.640Z,86.61
2022-11-16T22:51:06.889Z,86.04
2022-11-16T22:53:34.289Z,86.50
2022-11-16T22:56:05.622Z,86.36
2022-11-16T22:58:32.328Z,87.13
2022-11-16T23:00:58.832Z,86.49
2022-11-16T23:03:25.362Z,86.57
2022-11-16T23:05:51.915Z,86.52
2022-11-16T23:08:18.452Z,87.52
2022-11-16T23:11:03.725Z,87.19
2022-11-16T23:13:48.869Z,87.13
2022-11-16T23:16:15.453Z,86.94
2022-11-16T23:18:41.979Z,87.35
2022-11-16T23:21:27.406Z,87.00
2022-11-16T23:24:12.394Z,87.65
2022-11-16T23:26:57.734Z,87.00
2022-11-16T23:29:24.249Z,87.86
2022-11-16T23:31:50.771Z,87.17
2022-11-16T23:34:17.377Z,87.50
2022-11-16T23:36:43.913Z,88.27
2022-11-16T23:39:10.629Z,87.81
2022-11-16T23:41:55.433Z,88.20
2022-11-16T23:44:21.937Z,88.39
2022-11-16T23:46:48.470Z,87.54
2022-11-16T23:49:15.037Z,88.01
2022-11-16T23:51:41.662Z,87.43
2022-11-16T23:54:08.172Z,88.12
2022-11-16T23:56:34.697Z,86.89
2022-11-16T23:59:01.215Z,87.50
